Time;durP1;ratioP1;P1;durP2;ratioP2;P2;SDS_P1;SDS_P2;PMS_P1;PMS_P2;Temp;Humidity;BMP_temperature;BMP_pressure;BME280_temperature;BME280_humidity;BME280_pressure;Samples;Min_cycle;Max_cycle;Signal;HPM_P1;HPM_P2
2021/07/25 00:00:57;;;;;;;309.92;112.80;;;;;;;15.13;93.49;100978.09;4993103;28;20394;-70
2021/07/25 00:03:22;;;;;;;330.17;114.97;;;;;;;15.14;93.50;100974.41;4992555;28;20390;-70
2021/07/25 00:05:48;;;;;;;302.63;107.07;;;;;;;15.15;93.40;100984.13;4993239;28;20042;-70
2021/07/25 00:08:13;;;;;;;281.02;104.50;;;;;;;15.14;93.54;100976.25;4993056;28;20041;-70
2021/07/25 00:10:43;;;;;;;274.42;100.70;;;;;;;15.12;93.68;100971.06;4992604;28;20439;-71
2021/07/25 00:13:09;;;;;;;286.80;104.18;;;;;;;15.11;93.53;100968.56;4992986;28;20046;-71
2021/07/25 00:15:36;;;;;;;276.85;103.75;;;;;;;15.11;93.60;100966.69;4992739;28;20038;-70
2021/07/25 00:18:01;;;;;;;323.73;115.63;;;;;;;15.14;93.91;100973.56;4993483;28;20030;-70
2021/07/25 00:20:27;;;;;;;327.90;114.85;;;;;;;15.17;93.79;100973.25;4992742;28;20033;-70
2021/07/25 00:22:52;;;;;;;301.33;110.18;;;;;;;15.21;93.66;100971.91;4992889;28;20062;-71
2021/07/25 00:25:20;;;;;;;313.88;111.90;;;;;;;15.27;93.95;100970.38;4992929;28;20030;-70
2021/07/25 00:27:52;;;;;;;340.25;118.32;;;;;;;15.31;93.88;100969.88;4992944;28;20026;-70
2021/07/25 00:30:19;;;;;;;295.88;109.97;;;;;;;15.35;94.24;100973.09;4992978;28;20037;-70
2021/07/25 00:32:46;;;;;;;305.38;106.10;;;;;;;15.38;93.94;100979.97;4992991;28;20030;-70
2021/07/25 00:35:12;;;;;;;324.40;113.30;;;;;;;15.40;94.12;100983.31;4992731;28;20045;-70
2021/07/25 00:37:42;;;;;;;331.08;112.80;;;;;;;15.45;94.23;100987.16;4990843;28;20426;-71
2021/07/25 00:40:45;;;;;;;310.80;113.65;;;;;;;15.47;94.03;100987.81;4993046;28;20061;-71
2021/07/25 00:43:27;;;;;;;334.77;113.05;;;;;;;15.53;94.19;100980.97;4971234;28;20031;-71
2021/07/25 00:45:53;;;;;;;344.77;115.85;;;;;;;15.56;94.25;100983.31;4990584;28;20069;-71
2021/07/25 00:48:19;;;;;;;375.02;124.97;;;;;;;15.62;94.35;100982.63;4993134;28;20030;-70
2021/07/25 00:50:46;;;;;;;319.00;112.50;;;;;;;15.65;94.04;100970.72;4996120;28;20030;-71
2021/07/25 00:53:11;;;;;;;337.67;114.88;;;;;;;15.66;94.29;100972.41;4997060;28;20042;-70
2021/07/25 00:55:37;;;;;;;332.75;114.30;;;;;;;15.67;93.95;100974.06;4996213;28;20080;-71
2021/07/25 00:58:02;;;;;;;310.00;111.50;;;;;;;15.68;94.20;100968.53;4996587;28;20051;-71
2021/07/25 01:00:28;;;;;;;304.13;110.53;;;;;;;15.68;94.04;100965.84;4995679;28;20035;-71
2021/07/25 01:03:03;;;;;;;282.55;103.97;;;;;;;15.66;94.23;100956.31;4996601;28;20391;-70
2021/07/25 01:05:59;;;;;;;300.70;105.75;;;;;;;15.64;94.29;100955.63;4996018;28;20043;-71
2021/07/25 01:08:40;;;;;;;322.30;110.03;;;;;;;15.61;93.96;100951.44;4995691;28;20026;-71
2021/07/25 01:11:07;;;;;;;323.50;111.82;;;;;;;15.59;93.98;100955.31;4996243;28;20046;-71
2021/07/25 01:13:37;;;;;;;278.63;101.90;;;;;;;15.57;94.13;100957.31;4995541;28;20047;-70
2021/07/25 01:16:03;;;;;;;276.90;101.55;;;;;;;15.51;93.89;100950.81;4996383;28;20045;-71
2021/07/25 01:18:28;;;;;;;302.00;108.70;;;;;;;15.49;93.81;100955.47;4995731;28;20038;-70
2021/07/25 01:20:55;;;;;;;364.17;122.20;;;;;;;15.49;93.70;100947.44;4996031;28;20042;-70
2021/07/25 01:23:22;;;;;;;356.38;119.10;;;;;;;15.52;93.81;100947.97;4995859;28;20125;-70
2021/07/25 01:25:53;;;;;;;371.58;122.03;;;;;;;15.54;94.20;100937.06;4995653;28;20038;-71
2021/07/25 01:28:27;;;;;;;391.58;127.88;;;;;;;15.60;94.01;100940.88;4996176;28;20466;-71
2021/07/25 01:30:55;;;;;;;381.02;126.80;;;;;;;15.61;94.23;100943.41;4996361;28;20030;-71
2021/07/25 01:33:25;;;;;;;373.67;124.45;;;;;;;15.63;94.19;100940.53;4996000;28;20030;-71
2021/07/25 01:35:52;;;;;;;370.50;123.53;;;;;;;15.65;94.05;100943.91;4995703;28;20038;-71
2021/07/25 01:38:18;;;;;;;369.23;122.82;;;;;;;15.66;94.03;100957.16;4996214;28;20046;-71
2021/07/25 01:41:02;;;;;;;347.70;115.03;;;;;;;15.68;94.25;100968.53;4995378;28;20539;-71
2021/07/25 01:43:30;;;;;;;343.05;117.38;;;;;;;15.68;94.25;100960.50;4995170;28;20085;-71
2021/07/25 01:45:55;;;;;;;331.73;115.97;;;;;;;15.67;93.91;100960.66;4994516;28;20034;-71
2021/07/25 01:48:20;;;;;;;344.98;120.43;;;;;;;15.68;93.91;100962.34;4995649;28;20105;-71
2021/07/25 01:50:46;;;;;;;364.00;121.55;;;;;;;15.69;94.18;100958.66;4994994;28;20660;-71
2021/07/25 01:53:11;;;;;;;313.13;111.10;;;;;;;15.68;94.19;100965.84;4995850;28;20368;-71
2021/07/25 01:55:37;;;;;;;321.67;113.43;;;;;;;15.68;93.98;100965.84;4994985;28;20034;-71
2021/07/25 01:58:02;;;;;;;328.20;113.57;;;;;;;15.71;93.99;100970.06;4995566;28;20125;-71
2021/07/25 02:00:28;;;;;;;331.33;118.07;;;;;;;15.73;94.20;100964.50;4995440;28;20034;-70
2021/07/25 02:02:53;;;;;;;332.25;115.05;;;;;;;15.73;94.11;100965.34;4995409;28;20042;-70
2021/07/25 02:05:19;;;;;;;322.83;112.30;;;;;;;15.72;94.16;100957.47;4995223;28;20062;-70
2021/07/25 02:07:44;;;;;;;331.73;114.45;;;;;;;15.71;94.32;100951.28;4994744;28;20034;-70
2021/07/25 02:10:10;;;;;;;324.90;111.32;;;;;;;15.71;94.23;100953.13;4995531;28;20053;-70
2021/07/25 02:12:35;;;;;;;313.45;110.18;;;;;;;15.70;94.10;100946.91;4994716;28;20073;-70
2021/07/25 02:15:00;;;;;;;303.45;109.32;;;;;;;15.69;93.85;100945.25;4995217;28;20050;-70
2021/07/25 02:17:26;;;;;;;287.80;105.10;;;;;;;15.69;93.89;100945.25;4995165;28;20049;-70
2021/07/25 02:19:51;;;;;;;285.80;106.47;;;;;;;15.68;93.93;100947.09;4994435;28;20066;-70
2021/07/25 02:22:16;;;;;;;286.10;107.05;;;;;;;15.68;94.14;100941.72;4994971;28;20031;-71
2021/07/25 02:24:42;;;;;;;280.50;107.57;;;;;;;15.67;94.02;100936.53;4994699;28;20045;-71
2021/07/25 02:27:08;;;;;;;271.73;104.10;;;;;;;15.66;93.99;100932.19;4995081;28;20485;-70
2021/07/25 02:29:33;;;;;;;275.58;106.40;;;;;;;15.64;93.82;100937.69;4994373;28;20048;-71
2021/07/25 02:31:58;;;;;;;271.83;103.00;;;;;;;15.64;93.87;100926.97;4994830;28;20030;-70
2021/07/25 02:34:24;;;;;;;281.73;104.07;;;;;;;15.64;93.78;100928.81;4994679;28;20069;-70
2021/07/25 02:36:49;;;;;;;285.83;104.78;;;;;;;15.61;93.84;100927.31;4994162;28;20046;-70
2021/07/25 02:39:15;;;;;;;330.38;112.15;;;;;;;15.61;94.06;100926.47;4994712;28;20034;-70
2021/07/25 02:41:40;;;;;;;326.10;111.65;;;;;;;15.59;93.67;100921.28;4994209;28;20034;-71
2021/07/25 02:44:06;;;;;;;281.50;104.95;;;;;;;15.59;93.75;100920.47;4994754;28;20418;-70
2021/07/25 02:46:33;;;;;;;358.30;116.72;;;;;;;15.58;93.70;100916.09;4994539;28;20446;-70
2021/07/25 02:48:58;;;;;;;297.73;105.10;;;;;;;15.57;94.21;100915.25;4994553;28;20109;-70
2021/07/25 02:51:23;;;;;;;296.25;106.50;;;;;;;15.56;93.79;100916.25;4994889;28;20165;-70
2021/07/25 02:53:49;;;;;;;271.48;100.68;;;;;;;15.55;93.75;100909.22;4993979;28;20065;-70
2021/07/25 02:56:14;;;;;;;311.83;107.80;;;;;;;15.56;93.80;100907.41;4993261;28;20034;-70
2021/07/25 02:58:40;;;;;;;313.25;111.90;;;;;;;15.56;94.09;100907.41;4993924;28;20026;-70
2021/07/25 03:01:12;;;;;;;327.48;114.75;;;;;;;15.56;93.99;100905.53;4994431;28;20038;-70
2021/07/25 03:03:38;;;;;;;308.00;110.20;;;;;;;15.56;94.15;100902.03;4993536;28;20031;-71
2021/07/25 03:06:04;;;;;;;321.73;112.20;;;;;;;15.56;93.94;100912.75;4994184;28;20049;-71
2021/07/25 03:08:29;;;;;;;315.80;109.82;;;;;;;15.56;93.83;100912.75;4994275;28;20109;-71
2021/07/25 03:10:54;;;;;;;315.23;110.18;;;;;;;15.56;94.35;100918.13;4993606;28;20475;-71
2021/07/25 03:13:20;;;;;;;347.70;113.75;;;;;;;15.54;94.20;100917.44;4993956;28;20467;-71
2021/07/25 03:15:45;;;;;;;320.17;111.00;;;;;;;15.52;94.03;100917.59;4993557;28;20061;-70
2021/07/25 03:18:10;;;;;;;317.98;107.68;;;;;;;15.53;94.02;100919.28;4993996;28;20045;-71
2021/07/25 03:20:36;;;;;;;349.80;117.40;;;;;;;15.51;93.92;100918.63;4993767;28;20042;-71
2021/07/25 03:23:01;;;;;;;379.95;123.75;;;;;;;15.56;94.29;100921.63;4993835;28;20034;-71
2021/07/25 03:25:27;;;;;;;350.20;115.38;;;;;;;15.58;94.06;100926.81;4994029;28;20040;-71
2021/07/25 03:27:52;;;;;;;336.15;114.72;;;;;;;15.58;94.17;100921.47;4993657;28;20034;-71
2021/07/25 03:30:17;;;;;;;361.73;117.93;;;;;;;15.57;94.13;100925.13;4993723;28;20034;-71
2021/07/25 03:32:44;;;;;;;380.73;119.55;;;;;;;15.57;94.37;100919.78;4993126;28;20504;-71
2021/07/25 03:35:10;;;;;;;370.42;121.50;;;;;;;15.56;94.44;100927.00;4993742;28;20038;-71
2021/07/25 03:37:40;;;;;;;348.27;116.45;;;;;;;15.55;94.39;100919.13;4993873;28;20077;-71
2021/07/25 03:40:06;;;;;;;326.98;109.53;;;;;;;15.52;93.98;100918.47;4993794;28;20038;-71
2021/07/25 03:42:31;;;;;;;314.75;108.07;;;;;;;15.50;94.19;100915.09;4993683;28;20112;-71
2021/07/25 03:44:57;;;;;;;337.90;110.65;;;;;;;15.50;94.25;100916.94;4992963;28;20113;-71
2021/07/25 03:47:22;;;;;;;324.27;112.75;;;;;;;15.46;94.21;100905.69;4993567;28;20088;-71
2021/07/25 03:49:48;;;;;;;331.80;112.45;;;;;;;15.45;94.17;100904.06;4991939;28;20076;-71
2021/07/25 03:52:13;;;;;;;343.48;114.32;;;;;;;15.45;94.09;100909.41;4993498;28;20042;-71
2021/07/25 03:54:42;;;;;;;339.33;112.78;;;;;;;15.45;94.07;100904.06;4993093;28;20042;-71
2021/07/25 03:57:08;;;;;;;318.98;108.15;;;;;;;15.44;94.21;100899.69;4993308;28;20038;-71
2021/07/25 03:59:33;;;;;;;361.70;116.03;;;;;;;15.43;94.15;100889.97;4993298;28;20034;-71
2021/07/25 04:01:59;;;;;;;365.27;115.70;;;;;;;15.44;94.18;100894.31;4992636;28;20665;-71
2021/07/25 04:04:24;;;;;;;300.58;105.38;;;;;;;15.42;94.46;100887.44;4993146;28;20045;-71
2021/07/25 04:06:49;;;;;;;335.48;110.43;;;;;;;15.40;94.40;100887.63;4992514;28;20038;-71
2021/07/25 04:09:15;;;;;;;323.83;108.07;;;;;;;15.40;94.46;100892.97;4993306;28;20088;-71
2021/07/25 04:11:40;;;;;;;316.35;107.18;;;;;;;15.39;94.42;100888.66;4993516;28;20137;-71
2021/07/25 04:14:06;;;;;;;315.05;106.90;;;;;;;15.39;94.57;100883.28;4992922;28;20477;-71
2021/07/25 04:16:31;;;;;;;314.25;106.72;;;;;;;15.40;94.08;100886.78;4991733;28;20561;-71
2021/07/25 04:18:57;;;;;;;310.70;106.63;;;;;;;15.41;93.82;100888.47;4992586;28;20061;-71
2021/07/25 04:21:22;;;;;;;282.90;101.22;;;;;;;15.42;94.32;100885.63;4993158;28;20027;-71
2021/07/25 04:23:48;;;;;;;262.65;94.28;;;;;;;15.41;94.58;100883.94;4992042;28;20120;-71
2021/07/25 04:26:13;;;;;;;264.20;98.15;;;;;;;15.40;94.36;100889.47;4993264;28;20121;-70
2021/07/25 04:28:39;;;;;;;271.88;95.95;;;;;;;15.40;94.18;100884.94;4993128;28;20034;-71
2021/07/25 04:31:05;;;;;;;263.67;98.60;;;;;;;15.41;94.41;100894.66;4992657;28;20125;-71
2021/07/25 04:33:33;;;;;;;254.07;91.63;;;;;;;15.43;94.23;100897.19;4994054;28;20109;-71
2021/07/25 04:35:59;;;;;;;279.48;100.50;;;;;;;15.44;94.55;100899.69;4992770;28;20050;-71
2021/07/25 04:38:24;;;;;;;262.95;93.65;;;;;;;15.46;94.39;100897.66;4992184;28;20036;-71
2021/07/25 04:40:57;;;;;;;229.70;87.28;;;;;;;15.48;94.29;100898.34;4992808;28;20041;-71
2021/07/25 04:43:27;;;;;;;242.85;89.82;;;;;;;15.52;94.41;100896.16;4992944;28;20041;-70
2021/07/25 04:46:16;;;;;;;241.65;88.25;;;;;;;15.58;94.56;100900.00;4992299;28;20081;-71
2021/07/25 04:48:50;;;;;;;235.25;85.82;;;;;;;15.63;94.26;100892.28;4992964;28;20026;-71
2021/07/25 04:51:18;;;;;;;193.88;80.22;;;;;;;15.68;94.32;100889.94;4992896;28;20398;-71
2021/07/25 04:53:46;;;;;;;180.40;73.45;;;;;;;15.73;94.06;100894.78;4992919;28;20049;-72
2021/07/25 04:56:13;;;;;;;198.45;76.15;;;;;;;15.78;94.36;100895.97;4992838;28;20066;-71
2021/07/25 04:58:44;;;;;;;163.30;72.10;;;;;;;15.83;94.52;100901.66;4992838;28;20061;-72
2021/07/25 05:01:18;;;;;;;161.35;69.30;;;;;;;15.85;94.46;100894.28;4992234;28;20030;-71
2021/07/25 05:03:44;;;;;;;139.05;61.03;;;;;;;15.91;94.09;100894.59;4992713;28;20030;-72
2021/07/25 05:06:13;;;;;;;122.38;58.25;;;;;;;15.95;93.72;100891.38;4991783;28;20038;-71
2021/07/25 05:08:39;;;;;;;110.28;52.13;;;;;;;15.98;93.52;100891.03;4992452;28;20034;-71
2021/07/25 05:11:27;;;;;;;94.53;47.75;;;;;;;16.01;93.37;100892.53;4991900;28;20037;-72
2021/07/25 05:13:58;;;;;;;87.07;45.25;;;;;;;16.04;92.65;100893.00;4991735;28;20542;-71
2021/07/25 05:16:31;;;;;;;91.75;45.17;;;;;;;16.09;92.41;100900.53;4992608;28;20402;-72
2021/07/25 05:19:26;;;;;;;90.07;44.05;;;;;;;16.14;92.30;100900.88;4992367;28;20031;-71
2021/07/25 05:22:05;;;;;;;83.10;42.00;;;;;;;16.17;92.19;100903.22;4992137;28;20030;-71
2021/07/25 05:24:43;;;;;;;83.88;43.20;;;;;;;16.23;92.06;100917.78;4992512;28;20034;-71
2021/07/25 05:27:18;;;;;;;81.13;40.15;;;;;;;16.29;92.16;100911.72;4991759;28;20487;-72
2021/07/25 05:29:44;;;;;;;67.10;37.47;;;;;;;16.34;91.56;100916.56;4991181;28;20026;-71
2021/07/25 05:32:10;;;;;;;57.63;31.88;;;;;;;16.39;91.01;100917.72;4991891;28;20125;-71
2021/07/25 05:34:35;;;;;;;45.47;28.00;;;;;;;16.43;90.22;100910.13;4993229;28;20117;-71
2021/07/25 05:37:00;;;;;;;44.20;26.83;;;;;;;16.48;90.32;100917.66;4995437;28;20039;-71
2021/07/25 05:39:26;;;;;;;38.80;23.92;;;;;;;16.53;90.03;100913.44;4996243;28;20417;-71
2021/07/25 05:41:51;;;;;;;46.63;26.15;;;;;;;16.53;89.62;100913.44;4995222;28;20033;-71
2021/07/25 05:44:17;;;;;;;43.90;25.60;;;;;;;16.56;89.77;100912.25;4995955;28;20043;-70
2021/07/25 05:46:42;;;;;;;48.22;25.77;;;;;;;16.60;89.85;100918.94;4996087;28;20058;-71
2021/07/25 05:49:07;;;;;;;41.97;24.23;;;;;;;16.62;89.67;100911.53;4995381;28;20038;-71
2021/07/25 05:51:33;;;;;;;38.53;23.33;;;;;;;16.66;88.63;100912.00;4995850;28;20034;-71
2021/07/25 05:53:58;;;;;;;40.45;23.75;;;;;;;16.74;87.82;100914.66;4995344;28;20494;-70
2021/07/25 05:56:23;;;;;;;30.27;19.55;;;;;;;16.87;88.79;100909.56;4994530;28;20042;-71
2021/07/25 05:58:49;;;;;;;32.65;20.58;;;;;;;16.96;87.57;100906.81;4995786;28;20467;-71
2021/07/25 06:01:14;;;;;;;28.15;19.05;;;;;;;17.03;86.67;100907.75;4995101;28;20038;-71
2021/07/25 06:03:39;;;;;;;31.63;20.30;;;;;;;17.10;87.62;100912.22;4995417;28;20081;-71
2021/07/25 06:06:08;;;;;;;30.60;20.05;;;;;;;17.17;87.12;100907.00;4994906;28;20038;-71
2021/07/25 06:08:34;;;;;;;27.00;19.67;;;;;;;17.25;86.71;100911.44;4995506;28;20038;-71
2021/07/25 06:10:59;;;;;;;39.17;20.40;;;;;;;17.32;86.69;100911.59;4994649;28;20027;-71
2021/07/25 06:13:24;;;;;;;30.65;20.20;;;;;;;17.39;86.45;100917.88;4995246;28;20046;-71
2021/07/25 06:15:50;;;;;;;28.88;18.30;;;;;;;17.46;85.43;100921.50;4995599;28;20043;-71
2021/07/25 06:18:15;;;;;;;31.90;20.55;;;;;;;17.51;85.72;100918.28;4994727;28;20030;-71
2021/07/25 06:20:40;;;;;;;28.80;19.20;;;;;;;17.54;85.33;100924.16;4995094;28;20034;-70
2021/07/25 06:23:06;;;;;;;27.67;17.13;;;;;;;17.54;84.48;100915.22;4994386;28;20063;-70
2021/07/25 06:25:33;;;;;;;26.80;17.85;;;;;;;17.56;83.87;100921.28;4995052;28;20034;-70
2021/07/25 06:28:01;;;;;;;28.35;18.35;;;;;;;17.59;85.07;100913.66;4994649;28;20066;-70
2021/07/25 06:30:27;;;;;;;30.98;19.63;;;;;;;17.67;84.64;100911.91;4995048;28;20034;-70
2021/07/25 06:32:56;;;;;;;30.15;19.60;;;;;;;17.75;84.72;100907.28;4993865;28;20034;-70
2021/07/25 06:35:24;;;;;;;23.95;17.67;;;;;;;17.86;83.97;100908.66;4995086;28;20041;-70
2021/07/25 06:37:50;;;;;;;27.73;17.48;;;;;;;18.02;83.45;100906.81;4994955;28;20034;-70
2021/07/25 06:40:15;;;;;;;25.88;17.27;;;;;;;18.17;83.32;100912.19;4994042;28;20390;-70
2021/07/25 06:42:41;;;;;;;22.00;15.52;;;;;;;18.29;83.08;100910.72;4993546;28;20027;-70
2021/07/25 06:45:07;;;;;;;31.40;17.02;;;;;;;18.44;81.16;100899.91;4993976;28;20079;-70
2021/07/25 06:47:32;;;;;;;23.60;16.88;;;;;;;18.63;81.33;100904.69;4993916;28;20113;-70
2021/07/25 06:49:58;;;;;;;23.58;16.23;;;;;;;18.71;80.70;100911.00;4994687;28;20034;-70
2021/07/25 06:52:23;;;;;;;20.85;14.75;;;;;;;18.88;80.13;100912.44;4994550;28;20030;-70
2021/07/25 06:54:48;;;;;;;20.65;16.05;;;;;;;19.02;79.27;100903.44;4994372;28;20034;-70
2021/07/25 06:57:14;;;;;;;21.70;16.45;;;;;;;19.11;79.11;100906.00;4993766;28;20139;-70
2021/07/25 06:59:39;;;;;;;26.92;16.33;;;;;;;19.24;79.09;100902.59;4994335;28;20062;-70
2021/07/25 07:02:05;;;;;;;23.83;16.25;;;;;;;19.41;79.17;100906.69;4993872;28;20035;-70
2021/07/25 07:04:30;;;;;;;24.90;16.60;;;;;;;19.57;78.60;100900.13;4992941;28;20050;-70
2021/07/25 07:06:55;;;;;;;23.83;15.65;;;;;;;19.76;78.49;100909.41;4994380;28;20385;-70
2021/07/25 07:09:21;;;;;;;23.55;16.15;;;;;;;19.98;78.18;100906.66;4993532;28;20026;-70
2021/07/25 07:11:46;;;;;;;19.98;15.15;;;;;;;20.23;76.06;100904.31;4994503;28;20038;-70
2021/07/25 07:14:11;;;;;;;27.48;18.20;;;;;;;20.44;77.53;100906.03;4992095;28;20050;-70
2021/07/25 07:16:37;;;;;;;23.08;16.23;;;;;;;20.66;74.53;100904.06;4994248;28;20034;-70
2021/07/25 07:19:02;;;;;;;26.77;16.75;;;;;;;20.88;75.19;100906.59;4993483;28;20121;-71
2021/07/25 07:21:28;;;;;;;19.80;12.85;;;;;;;21.22;72.66;100897.44;4994090;28;20022;-70
2021/07/25 07:23:54;;;;;;;21.98;16.02;;;;;;;21.48;72.25;100907.44;4993903;28;20034;-70
2021/07/25 07:26:19;;;;;;;22.65;16.65;;;;;;;21.63;72.61;100909.97;4993205;28;20042;-70
2021/07/25 07:28:44;;;;;;;23.88;16.23;;;;;;;21.80;68.49;100895.97;4994056;28;20041;-70
2021/07/25 07:31:10;;;;;;;23.73;16.38;;;;;;;21.88;69.79;100909.25;4993387;28;20038;-70
2021/07/25 07:33:35;;;;;;;20.67;15.00;;;;;;;21.99;69.11;100907.81;4993883;28;20042;-70
2021/07/25 07:36:00;;;;;;;27.33;16.55;;;;;;;22.09;69.77;100912.75;4993590;28;20109;-70
2021/07/25 07:38:26;;;;;;;21.83;15.57;;;;;;;22.14;68.28;100911.06;4993087;28;20100;-70
2021/07/25 07:40:51;;;;;;;21.85;14.75;;;;;;;22.07;68.28;100920.28;4993522;28;20093;-71
2021/07/25 07:43:18;;;;;;;23.15;15.43;;;;;;;21.99;69.23;100915.94;4991887;28;20395;-71
2021/07/25 07:45:44;;;;;;;23.05;15.05;;;;;;;21.95;67.78;100922.81;4992411;28;20038;-70
2021/07/25 07:48:09;;;;;;;23.98;15.48;;;;;;;22.13;70.00;100922.94;4992881;28;20117;-71
2021/07/25 07:50:35;;;;;;;19.23;12.80;;;;;;;22.35;67.50;100925.41;4993416;28;20481;-69
2021/07/25 07:53:00;;;;;;;23.08;15.68;;;;;;;22.66;68.38;100919.22;4993551;28;20092;-71
2021/07/25 07:55:26;;;;;;;24.10;15.05;;;;;;;22.73;63.40;100919.16;4992637;28;20030;-71
2021/07/25 07:57:51;;;;;;;18.00;14.43;;;;;;;22.61;63.75;100919.00;4993644;28;20069;-71
2021/07/25 08:00:17;;;;;;;23.55;15.13;;;;;;;22.59;65.12;100920.28;4992716;28;20429;-71
2021/07/25 08:02:43;;;;;;;22.55;14.32;;;;;;;22.49;66.61;100923.47;4993260;28;20388;-70
2021/07/25 08:05:10;;;;;;;23.05;15.32;;;;;;;22.49;65.64;100921.56;4992654;28;20149;-70
2021/07/25 08:07:37;;;;;;;23.20;14.45;;;;;;;22.54;64.86;100923.63;4993192;28;20117;-70
2021/07/25 08:10:02;;;;;;;19.08;13.68;;;;;;;22.81;62.09;100921.63;4993050;28;20026;-69
2021/07/25 08:12:28;;;;;;;19.40;13.57;;;;;;;22.97;63.87;100912.09;4992654;28;20037;-76
2021/07/25 08:14:53;;;;;;;18.95;12.90;;;;;;;23.14;63.01;100920.59;4993307;28;20058;-76
2021/07/25 08:17:18;;;;;;;18.77;13.52;;;;;;;23.16;62.81;100926.63;4991661;28;20038;-77
2021/07/25 08:19:44;;;;;;;22.98;13.40;;;;;;;23.24;63.29;100923.63;4993325;28;20459;-78
2021/07/25 08:22:10;;;;;;;19.80;13.60;;;;;;;23.32;63.95;100922.53;4992453;28;20388;-74
2021/07/25 08:24:38;;;;;;;16.48;12.73;;;;;;;23.73;63.88;100920.25;4992930;28;20485;-75
2021/07/25 08:27:07;;;;;;;20.30;12.98;;;;;;;24.25;58.88;100925.38;4992433;28;20049;-74
2021/07/25 08:29:33;;;;;;;17.80;11.50;;;;;;;24.82;57.12;100920.41;4992092;28;20483;-74
2021/07/25 08:31:59;;;;;;;17.02;13.30;;;;;;;25.38;56.93;100924.81;4991623;28;20122;-76
2021/07/25 08:34:25;;;;;;;21.88;12.80;;;;;;;25.84;56.46;100923.16;4991543;28;20052;-78
2021/07/25 08:36:50;;;;;;;16.85;11.38;;;;;;;26.23;54.06;100920.75;4992639;28;20034;-75
2021/07/25 08:39:16;;;;;;;17.02;12.45;;;;;;;26.53;54.21;100934.16;4992124;28;20529;-75
2021/07/25 08:41:47;;;;;;;15.95;11.70;;;;;;;26.11;51.54;100937.13;4993025;28;20034;-79
2021/07/25 08:44:37;;;;;;;19.08;12.25;;;;;;;25.66;53.28;100921.38;4992477;28;20034;-79
2021/07/25 08:47:08;;;;;;;18.23;11.63;;;;;;;25.51;51.92;100930.88;4993386;28;20133;-80
2021/07/25 08:49:47;;;;;;;;;;;;;;;25.65;54.73;100933.38;4992980;28;20101;-77
2021/07/25 08:52:17;;;;;;;15.88;10.68;;;;;;;25.48;53.96;100938.69;4992554;28;19916;-79
2021/07/25 08:54:43;;;;;;;19.10;9.80;;;;;;;25.17;55.85;100943.38;4993047;28;20073;-75
2021/07/25 08:57:13;;;;;;;14.18;9.32;;;;;;;24.84;57.34;100936.50;4992696;28;20084;-76
2021/07/25 08:59:42;;;;;;;14.77;11.38;;;;;;;24.88;54.55;100939.63;4992669;28;20041;-77
2021/07/25 09:02:28;;;;;;;15.95;11.48;;;;;;;24.82;57.48;100935.91;4992895;28;20034;-78
2021/07/25 09:04:54;;;;;;;15.30;10.63;;;;;;;24.97;55.32;100936.31;4992815;28;20064;-78
2021/07/25 09:07:22;;;;;;;13.93;10.18;;;;;;;25.24;57.38;100938.63;4992431;28;20081;-76
2021/07/25 09:09:50;;;;;;;24.92;16.75;;;;;;;25.11;57.53;100945.13;4993857;28;20077;-77
2021/07/25 09:12:18;;;;;;;22.92;15.93;;;;;;;25.08;57.51;100947.47;4996087;28;20117;-76
2021/07/25 09:14:47;;;;;;;22.15;15.63;;;;;;;25.26;56.21;100943.81;4996556;28;20054;-76
2021/07/25 09:17:12;;;;;;;24.27;16.48;;;;;;;25.19;57.24;100946.66;4996628;28;20041;-74
2021/07/25 09:20:16;;;;;;;24.73;15.27;;;;;;;25.10;56.93;100950.81;4995827;28;20027;-75
2021/07/25 09:22:47;;;;;;;28.35;16.17;;;;;;;25.16;56.66;100947.13;4994989;28;20467;-74
2021/07/25 09:25:13;;;;;;;20.30;15.35;;;;;;;24.97;55.17;100952.63;4994972;28;20471;-74
2021/07/25 09:27:39;;;;;;;23.90;16.23;;;;;;;24.64;57.37;100953.94;4995500;28;20045;-74
2021/07/25 09:30:18;;;;;;;20.67;15.63;;;;;;;24.18;58.39;100958.03;4996128;28;20041;-76
2021/07/25 09:32:49;;;;;;;20.00;15.32;;;;;;;23.92;59.04;100961.91;4996182;28;20037;-74
2021/07/25 09:35:27;;;;;;;22.75;15.98;;;;;;;23.57;60.05;100957.81;4995906;28;20096;-74
2021/07/25 09:38:08;;;;;;;22.60;16.55;;;;;;;23.53;60.78;100969.34;4996269;28;20038;-75
2021/07/25 09:40:37;;;;;;;26.50;16.15;;;;;;;23.86;60.45;100963.63;4995564;28;20470;-75
2021/07/25 09:43:12;;;;;;;26.23;17.55;;;;;;;23.87;59.94;100967.16;4996043;28;20471;-75
2021/07/25 09:45:50;;;;;;;27.23;17.58;;;;;;;24.82;58.58;100957.69;4995165;28;20042;-78
2021/07/25 09:48:16;;;;;;;22.75;15.95;;;;;;;26.80;53.39;100970.94;4995881;28;20064;-74
2021/07/25 09:50:42;;;;;;;27.77;15.85;;;;;;;27.74;48.87;100958.63;4993885;28;20391;-75
2021/07/25 09:53:07;;;;;;;27.10;18.02;;;;;;;27.50;48.57;100964.28;4995696;28;20035;-75
2021/07/25 09:55:33;;;;;;;23.88;17.20;;;;;;;26.57;51.22;100962.63;4995252;28;20034;-75
2021/07/25 09:57:58;;;;;;;25.63;17.35;;;;;;;26.02;53.92;100957.63;4995948;28;20038;-81
2021/07/25 10:00:43;;;;;;;27.35;17.92;;;;;;;25.86;54.22;100960.00;4994745;28;20474;-75
2021/07/25 10:03:17;;;;;;;27.10;18.83;;;;;;;25.26;54.84;100965.59;4994545;28;20118;-76
2021/07/25 10:05:43;;;;;;;28.00;19.95;;;;;;;25.04;55.25;100962.63;4994862;28;20038;-77
2021/07/25 10:08:20;;;;;;;28.83;19.35;;;;;;;24.82;56.03;100960.41;4995478;28;20039;-76
2021/07/25 10:10:48;;;;;;;24.83;18.88;;;;;;;24.34;57.55;100964.78;4995412;28;20100;-76
2021/07/25 10:13:21;;;;;;;28.13;19.58;;;;;;;23.94;58.12;100962.50;4995533;28;20050;-76
2021/07/25 10:15:58;;;;;;;30.05;19.23;;;;;;;23.76;59.51;100958.66;4995903;28;20169;-75
2021/07/25 10:18:25;;;;;;;29.00;19.40;;;;;;;23.45;59.72;100959.56;4994818;28;20038;-76
2021/07/25 10:20:57;;;;;;;32.67;19.50;;;;;;;23.29;60.36;100963.69;4993246;28;20161;-75
2021/07/25 10:23:47;;;;;;;28.77;19.27;;;;;;;23.22;60.52;100954.75;4994287;28;20375;-76
2021/07/25 10:26:12;;;;;;;28.67;19.67;;;;;;;23.27;59.66;100960.34;4995439;28;20156;-76
2021/07/25 10:28:41;;;;;;;24.20;18.85;;;;;;;24.08;57.49;100958.59;4993568;28;20485;-75
2021/07/25 10:31:07;;;;;;;22.15;16.38;;;;;;;25.85;53.92;100952.88;4995220;28;20034;-76
2021/07/25 10:33:35;;;;;;;23.00;16.23;;;;;;;27.46;49.60;100946.72;4994523;28;20038;-79
2021/07/25 10:36:02;;;;;;;27.02;18.15;;;;;;;28.19;44.70;100949.41;4994840;28;20038;-73
2021/07/25 10:38:28;;;;;;;24.17;15.50;;;;;;;28.59;42.28;100952.88;4994205;28;20479;-74
2021/07/25 10:40:54;;;;;;;24.85;17.85;;;;;;;28.44;43.86;100951.63;4994876;28;20045;-74
2021/07/25 10:43:25;;;;;;;26.92;16.13;;;;;;;28.99;43.88;100966.22;4994886;28;20030;-75
2021/07/25 10:46:09;;;;;;;;;;;;;;;29.31;44.25;100954.44;4995219;28;20118;-76
2021/07/25 10:48:34;;;;;;;24.65;17.48;;;;;;;29.30;43.59;100954.72;4993983;28;20382;-75
2021/07/25 10:51:10;;;;;;;25.85;17.10;;;;;;;29.22;43.26;100958.75;4994896;28;20046;-75
2021/07/25 10:53:36;;;;;;;27.40;18.35;;;;;;;29.78;42.99;100954.75;4994095;28;20452;-74
2021/07/25 10:56:01;;;;;;;22.65;16.63;;;;;;;29.91;42.62;100964.47;4994771;28;20109;-74
2021/07/25 10:58:27;;;;;;;23.25;15.32;;;;;;;30.36;41.76;100958.34;4991704;28;20026;-78
2021/07/25 11:00:55;;;;;;;22.05;16.48;;;;;;;30.68;39.73;100960.13;4990228;28;20501;-76
2021/07/25 11:03:29;;;;;;;26.13;18.48;;;;;;;30.70;41.21;100949.69;4991839;28;20035;-76
2021/07/25 11:06:11;;;;;;;22.20;15.82;;;;;;;30.50;40.07;100953.22;4991509;28;20038;-78
2021/07/25 11:08:43;;;;;;;24.52;15.00;;;;;;;30.32;41.16;100957.25;4991187;28;20398;-79